createdAt,value
2023-05-19T00:02:21.647Z,2.90
2023-05-19T00:04:51.023Z,2.27
2023-05-19T00:07:20.339Z,3.30
2023-05-19T00:09:50.766Z,2.90
2023-05-19T00:12:19.074Z,3.20
2023-05-19T00:14:47.354Z,3.60
2023-05-19T00:17:16.893Z,3.40
2023-05-19T00:19:45.053Z,3.13
2023-05-19T00:22:13.059Z,2.73
2023-05-19T00:24:40.866Z,3.27
2023-05-19T00:27:10.040Z,2.83
2023-05-19T00:29:37.846Z,2.37
2023-05-19T00:32:06.377Z,2.80
2023-05-19T00:34:34.289Z,3.00
2023-05-19T00:37:02.103Z,2.80
2023-05-19T00:39:29.874Z,2.83
2023-05-19T00:41:57.738Z,3.10
2023-05-19T00:44:27.002Z,2.27
2023-05-19T00:46:54.938Z,2.83
2023-05-19T00:49:22.853Z,2.47
2023-05-19T00:51:50.940Z,2.60
2023-05-19T00:54:19.309Z,2.93
2023-05-19T00:56:47.171Z,3.17
2023-05-19T00:59:15.033Z,2.73
2023-05-19T01:01:45.708Z,2.20
2023-05-19T01:04:17.020Z,2.87
2023-05-19T01:06:44.837Z,3.20
2023-05-19T01:09:12.842Z,2.90
2023-05-19T01:11:40.676Z,3.10
2023-05-19T01:14:08.803Z,2.87
2023-05-19T01:16:42.133Z,2.50
2023-05-19T01:19:23.062Z,2.53
2023-05-19T01:22:28.504Z,2.37
2023-05-19T01:25:30.603Z,3.00
2023-05-19T01:28:23.231Z,2.60
2023-05-19T01:30:54.572Z,3.13
2023-05-19T01:33:23.989Z,2.67
2023-05-19T01:35:52.565Z,3.03
2023-05-19T01:38:21.112Z,2.57
2023-05-19T01:40:51.407Z,2.10
2023-05-19T01:43:21.324Z,3.07
2023-05-19T01:45:49.824Z,2.50
2023-05-19T01:48:20.521Z,3.00
2023-05-19T01:50:48.677Z,3.10
2023-05-19T01:53:16.574Z,2.63
2023-05-19T01:55:47.961Z,3.13
2023-05-19T01:58:21.672Z,2.40
2023-05-19T02:00:54.815Z,2.43
2023-05-19T02:03:38.943Z,3.37
2023-05-19T02:06:19.402Z,3.00
2023-05-19T02:08:55.206Z,3.07
2023-05-19T02:11:28.601Z,2.83
2023-05-19T02:13:59.972Z,3.40
2023-05-19T02:16:30.152Z,2.60
2023-05-19T02:18:59.509Z,2.67
2023-05-19T02:21:27.529Z,2.50
2023-05-19T02:23:55.372Z,2.80
2023-05-19T02:26:23.282Z,3.50
2023-05-19T02:28:51.087Z,2.80
2023-05-19T02:31:18.922Z,2.30
2023-05-19T02:33:46.711Z,2.60
2023-05-19T02:36:15.877Z,2.67
2023-05-19T02:38:43.695Z,2.80
2023-05-19T02:41:11.484Z,2.90
2023-05-19T02:43:39.340Z,2.67
2023-05-19T02:46:07.163Z,2.90
2023-05-19T02:48:35.047Z,3.10
2023-05-19T02:51:03.107Z,2.70
2023-05-19T02:53:33.324Z,3.23
2023-05-19T02:56:01.132Z,2.70
2023-05-19T02:58:28.947Z,2.33
2023-05-19T03:00:56.994Z,4.40
2023-05-19T03:03:24.896Z,3.33
2023-05-19T03:05:53.612Z,3.20
2023-05-19T03:08:21.593Z,2.60
2023-05-19T03:10:50.914Z,2.53
2023-05-19T03:13:18.671Z,3.30
2023-05-19T03:15:46.509Z,3.27
2023-05-19T03:18:14.367Z,2.57
2023-05-19T03:20:43.535Z,2.87
2023-05-19T03:23:11.422Z,2.60
2023-05-19T03:25:39.231Z,2.73
2023-05-19T03:28:08.505Z,2.93
2023-05-19T03:30:36.330Z,2.80
2023-05-19T03:33:05.351Z,2.67
2023-05-19T03:35:33.241Z,3.40
2023-05-19T03:38:01.042Z,2.80
2023-05-19T03:40:29.040Z,2.90
2023-05-19T03:42:56.860Z,2.97
2023-05-19T03:45:26.043Z,3.10
2023-05-19T03:47:53.896Z,3.40
2023-05-19T03:50:22.710Z,3.13
2023-05-19T03:52:50.580Z,3.13
2023-05-19T03:55:20.088Z,2.90
2023-05-19T03:57:48.813Z,3.13
2023-05-19T04:00:18.026Z,2.83
2023-05-19T04:02:47.276Z,3.30
2023-05-19T04:05:15.999Z,3.43
2023-05-19T04:07:45.011Z,3.20
2023-05-19T04:10:13.578Z,4.00
2023-05-19T04:12:41.432Z,4.10
2023-05-19T04:15:11.386Z,4.30
2023-05-19T04:17:39.367Z,2.87
2023-05-19T04:20:09.914Z,3.17
2023-05-19T04:22:37.703Z,3.70
2023-05-19T04:25:06.165Z,3.40
2023-05-19T04:27:36.570Z,4.00
2023-05-19T04:30:04.881Z,3.20
2023-05-19T04:32:32.980Z,3.33
2023-05-19T04:35:00.880Z,2.80
2023-05-19T04:37:30.494Z,4.40
2023-05-19T04:39:58.267Z,3.33
2023-05-19T04:42:26.106Z,3.90
2023-05-19T04:44:53.954Z,3.23
2023-05-19T04:47:22.307Z,3.87
2023-05-19T04:49:50.207Z,3.50
2023-05-19T04:52:21.714Z,3.00
2023-05-19T04:54:50.926Z,3.27
2023-05-19T04:57:18.751Z,3.10
2023-05-19T04:59:47.015Z,3.07
2023-05-19T05:02:14.879Z,3.30
2023-05-19T05:04:44.024Z,4.10
2023-05-19T05:07:12.141Z,3.87
2023-05-19T05:09:39.926Z,3.10
2023-05-19T05:12:10.744Z,3.80
2023-05-19T05:14:40.100Z,3.30
2023-05-19T05:17:09.548Z,4.00
2023-05-19T05:19:37.912Z,4.23
2023-05-19T05:22:06.313Z,3.40
2023-05-19T05:24:34.745Z,4.10
2023-05-19T05:27:02.542Z,3.47
2023-05-19T05:29:31.737Z,4.13
2023-05-19T05:31:59.716Z,3.23
2023-05-19T05:34:27.700Z,4.37
2023-05-19T05:36:55.872Z,3.80
2023-05-19T05:39:23.647Z,3.93
2023-05-19T05:41:51.467Z,4.20
2023-05-19T05:44:19.264Z,4.00
2023-05-19T05:46:49.131Z,3.80
2023-05-19T05:49:17.423Z,5.10
2023-05-19T05:51:54.651Z,4.77
2023-05-19T05:54:30.052Z,4.57
2023-05-19T05:56:58.400Z,4.47
2023-05-19T05:59:26.207Z,3.73
2023-05-19T06:01:55.404Z,3.60
2023-05-19T06:04:23.256Z,3.83
2023-05-19T06:06:52.565Z,4.17
2023-05-19T06:09:20.418Z,4.30
2023-05-19T06:11:48.275Z,4.73
2023-05-19T06:14:16.111Z,3.50
2023-05-19T06:16:43.946Z,4.03
2023-05-19T06:19:13.073Z,3.93
2023-05-19T06:21:42.791Z,4.50
2023-05-19T06:24:10.614Z,4.40
2023-05-19T06:26:38.744Z,4.37
2023-05-19T06:29:06.564Z,4.37
2023-05-19T06:31:34.440Z,3.90
2023-05-19T06:34:02.314Z,4.00
2023-05-19T06:36:32.233Z,4.10
2023-05-19T06:39:01.902Z,4.27
2023-05-19T06:41:30.437Z,4.77
2023-05-19T06:43:58.224Z,5.20
2023-05-19T06:46:26.110Z,4.50
2023-05-19T06:48:53.918Z,4.00
2023-05-19T06:51:22.451Z,3.70
2023-05-19T06:53:51.540Z,3.80
2023-05-19T06:56:19.554Z,4.00
2023-05-19T06:58:47.362Z,3.70
2023-05-19T07:01:15.246Z,3.53
2023-05-19T07:03:43.139Z,3.90
2023-05-19T07:06:11.236Z,3.17
2023-05-19T07:08:39.040Z,3.80
2023-05-19T07:11:08.193Z,4.20
2023-05-19T07:13:35.965Z,3.10
2023-05-19T07:16:03.895Z,3.33
2023-05-19T07:18:31.949Z,4.00
2023-05-19T07:20:59.999Z,3.83
2023-05-19T07:23:27.794Z,4.20
2023-05-19T07:25:56.627Z,4.20
2023-05-19T07:28:25.930Z,4.57
2023-05-19T07:30:53.787Z,4.40
2023-05-19T07:33:21.574Z,3.73
2023-05-19T07:35:49.717Z,4.63
2023-05-19T07:38:17.544Z,4.03
2023-05-19T07:40:45.408Z,4.60
2023-05-19T07:43:13.238Z,4.00
2023-05-19T07:45:42.486Z,4.00
2023-05-19T07:48:10.532Z,4.50
2023-05-19T07:50:38.356Z,3.90
2023-05-19T07:53:06.139Z,4.00
2023-05-19T07:55:33.894Z,4.20
2023-05-19T07:58:01.688Z,4.10
2023-05-19T08:00:29.480Z,3.97
2023-05-19T08:02:58.732Z,3.87
2023-05-19T08:05:26.610Z,3.20
2023-05-19T08:07:54.475Z,4.93
2023-05-19T08:10:22.294Z,4.50
2023-05-19T08:12:50.363Z,4.60
2023-05-19T08:15:18.946Z,3.43
2023-05-19T08:17:47.138Z,4.22
2023-05-19T08:20:16.375Z,4.10
2023-05-19T08:22:44.172Z,3.73
2023-05-19T08:25:12.047Z,3.90
2023-05-19T08:27:39.846Z,3.67
2023-05-19T08:30:09.001Z,4.30
2023-05-19T08:32:36.791Z,3.23
2023-05-19T08:35:04.875Z,4.00
2023-05-19T08:37:36.926Z,3.77
2023-05-19T08:40:05.931Z,3.40
2023-05-19T08:42:34.345Z,3.83
2023-05-19T08:45:03.489Z,4.03
2023-05-19T08:47:32.883Z,3.50
2023-05-19T08:50:07.411Z,3.77
2023-05-19T08:52:52.472Z,3.47
2023-05-19T08:55:33.765Z,3.90
2023-05-19T08:58:04.319Z,3.70
2023-05-19T09:00:33.024Z,3.40
2023-05-19T09:05:34.482Z,3.80
2023-05-19T09:08:05.485Z,3.90
2023-05-19T09:10:33.319Z,3.77
2023-05-19T09:13:01.152Z,4.20
2023-05-19T09:15:29.287Z,3.20
2023-05-19T09:18:10.601Z,3.37
2023-05-19T09:20:40.603Z,3.10
2023-05-19T09:23:13.805Z,3.10
2023-05-19T09:25:49.159Z,3.97
2023-05-19T09:28:24.555Z,3.97
2023-05-19T09:31:00.603Z,3.97
2023-05-19T09:33:29.140Z,3.90
2023-05-19T09:35:57.536Z,3.67
2023-05-19T09:38:27.176Z,3.97
2023-05-19T09:40:57.382Z,3.73
2023-05-19T09:43:25.320Z,4.30
2023-05-19T09:45:56.821Z,3.80
2023-05-19T09:48:27.592Z,3.43
2023-05-19T09:50:56.595Z,3.63
2023-05-19T09:53:26.820Z,3.80
2023-05-19T09:55:57.677Z,4.20
2023-05-19T09:58:26.244Z,4.20
2023-05-19T10:00:55.352Z,4.20
2023-05-19T10:03:23.834Z,4.20
2023-05-19T10:05:53.918Z,3.83
2023-05-19T10:08:24.044Z,4.30
2023-05-19T10:10:53.245Z,4.10
2023-05-19T10:13:23.519Z,4.20
2023-05-19T10:18:25.864Z,4.47
2023-05-19T10:20:54.172Z,3.90
2023-05-19T10:23:22.172Z,4.30
2023-05-19T10:25:51.201Z,4.67
2023-05-19T10:28:25.223Z,4.13
2023-05-19T10:30:57.523Z,3.80
2023-05-19T10:33:37.448Z,4.20
2023-05-19T10:36:26.623Z,4.80
2023-05-19T10:39:01.554Z,3.97
2023-05-19T10:41:38.023Z,4.37
2023-05-19T10:44:13.349Z,4.63
2023-05-19T10:46:42.930Z,4.80
2023-05-19T10:49:11.329Z,4.97
2023-05-19T10:51:39.132Z,5.30
2023-05-19T10:54:12.057Z,4.57
2023-05-19T10:56:42.442Z,4.73
2023-05-19T10:59:32.294Z,5.57
2023-05-19T11:02:05.027Z,4.10
2023-05-19T11:04:51.128Z,4.90
2023-05-19T11:07:20.861Z,4.67
2023-05-19T11:09:52.441Z,4.07
2023-05-19T11:12:25.347Z,4.30
2023-05-19T11:14:56.119Z,5.00
2023-05-19T11:17:27.299Z,5.10
2023-05-19T11:19:55.961Z,4.23
2023-05-19T11:22:26.205Z,4.63
2023-05-19T11:24:56.380Z,5.17
2023-05-19T11:27:31.250Z,5.40
2023-05-19T11:30:05.287Z,5.50
2023-05-19T11:32:34.857Z,5.20
2023-05-19T11:35:03.515Z,5.57
2023-05-19T11:37:34.557Z,5.90
2023-05-19T11:40:04.604Z,5.00
2023-05-19T11:42:34.572Z,5.50
2023-05-19T11:45:04.949Z,5.17
2023-05-19T11:47:47.114Z,5.40
2023-05-19T11:50:22.018Z,6.10
2023-05-19T11:52:49.962Z,5.30
2023-05-19T11:55:17.857Z,5.33
2023-05-19T11:58:03.990Z,5.07
2023-05-19T12:00:38.902Z,5.50
2023-05-19T12:03:07.252Z,5.10
2023-05-19T12:05:41.982Z,6.13
2023-05-19T12:08:11.507Z,5.90
2023-05-19T12:10:40.561Z,5.80
2023-05-19T12:13:09.817Z,6.10
2023-05-19T12:15:39.782Z,5.67
2023-05-19T12:18:08.398Z,5.73
2023-05-19T12:20:37.104Z,6.00
2023-05-19T12:23:05.650Z,5.73
2023-05-19T12:25:33.690Z,5.07
2023-05-19T12:28:03.190Z,6.40
2023-05-19T12:30:32.890Z,5.30
2023-05-19T12:33:03.531Z,5.43
2023-05-19T12:35:33.798Z,5.40
2023-05-19T12:38:05.517Z,5.37
2023-05-19T12:40:34.637Z,6.13
2023-05-19T12:43:02.719Z,5.50
2023-05-19T12:45:35.348Z,6.20
2023-05-19T12:48:06.335Z,5.20
2023-05-19T12:50:35.139Z,5.80
2023-05-19T12:53:03.409Z,5.40
2023-05-19T12:55:31.576Z,5.27
2023-05-19T12:57:59.431Z,6.03
2023-05-19T13:00:30.993Z,5.93
2023-05-19T13:03:00.879Z,5.27
2023-05-19T13:05:32.120Z,5.60
2023-05-19T13:08:01.895Z,5.33
2023-05-19T13:10:31.273Z,5.30
2023-05-19T13:13:00.933Z,5.60
2023-05-19T13:15:31.654Z,5.50
2023-05-19T13:17:59.502Z,5.70
2023-05-19T13:20:28.704Z,4.90
2023-05-19T13:22:57.972Z,5.33
2023-05-19T13:25:26.315Z,5.50
2023-05-19T13:27:55.348Z,5.70
2023-05-19T13:30:24.015Z,5.37
2023-05-19T13:32:52.381Z,4.93
2023-05-19T13:35:20.391Z,5.17
2023-05-19T13:37:48.851Z,5.63
2023-05-19T13:40:19.083Z,5.40
2023-05-19T13:42:47.202Z,6.50
2023-05-19T13:45:15.062Z,6.10
2023-05-19T13:47:42.875Z,5.23
2023-05-19T13:50:12.107Z,5.47
2023-05-19T13:52:39.937Z,5.50
2023-05-19T13:55:08.554Z,5.13
2023-05-19T13:57:38.191Z,5.43
2023-05-19T14:00:07.379Z,6.07
2023-05-19T14:02:36.201Z,5.33
2023-05-19T14:05:04.218Z,5.43
2023-05-19T14:07:34.635Z,6.20
2023-05-19T14:10:02.598Z,5.80
2023-05-19T14:12:38.032Z,6.57
2023-05-19T14:15:13.264Z,5.03
2023-05-19T14:17:41.126Z,5.20
2023-05-19T14:20:09.990Z,6.07
2023-05-19T14:22:37.804Z,5.50
2023-05-19T14:25:06.343Z,5.90
2023-05-19T14:27:35.895Z,5.17
2023-05-19T14:30:04.738Z,5.90
2023-05-19T14:32:33.939Z,6.43
2023-05-19T14:35:01.873Z,5.93
2023-05-19T14:37:31.653Z,5.97
2023-05-19T14:39:59.836Z,5.70
2023-05-19T14:42:27.861Z,5.50
2023-05-19T14:44:55.891Z,5.80
2023-05-19T14:47:24.730Z,4.90
2023-05-19T14:49:55.374Z,5.60
2023-05-19T14:52:23.230Z,5.33
2023-05-19T14:54:51.041Z,6.00
2023-05-19T14:57:18.901Z,5.77
2023-05-19T14:59:46.849Z,6.43
2023-05-19T15:02:14.700Z,5.27
2023-05-19T15:04:42.538Z,6.00
2023-05-19T15:07:11.688Z,6.37
2023-05-19T15:09:39.532Z,5.00
2023-05-19T15:12:07.397Z,6.20
2023-05-19T15:14:35.202Z,6.00
2023-05-19T15:17:03.126Z,5.03
2023-05-19T15:19:31.063Z,5.50
2023-05-19T15:21:58.885Z,5.10
2023-05-19T15:24:28.465Z,5.77
2023-05-19T15:26:56.872Z,5.17
2023-05-19T15:29:24.688Z,5.43
2023-05-19T15:31:52.910Z,5.80
2023-05-19T15:34:21.055Z,6.10
2023-05-19T15:36:48.940Z,5.60
2023-05-19T15:39:16.767Z,5.23
2023-05-19T15:41:45.942Z,5.27
2023-05-19T15:44:13.805Z,5.37
2023-05-19T15:46:41.710Z,4.20
2023-05-19T15:49:09.639Z,5.73
2023-05-19T15:51:41.044Z,5.53
2023-05-19T15:54:08.888Z,4.40
2023-05-19T15:56:36.809Z,5.17
2023-05-19T15:59:05.985Z,5.03
2023-05-19T16:01:33.947Z,4.63
2023-05-19T16:04:03.711Z,4.43
2023-05-19T16:06:31.909Z,5.70
2023-05-19T16:08:59.745Z,4.50
2023-05-19T16:11:27.797Z,4.50
2023-05-19T16:13:55.617Z,4.27
2023-05-19T16:16:24.799Z,4.63
2023-05-19T16:18:52.811Z,4.47
2023-05-19T16:21:21.290Z,5.00
2023-05-19T16:23:49.114Z,5.23
2023-05-19T16:26:16.901Z,4.50
2023-05-19T16:28:44.663Z,4.40
2023-05-19T16:31:12.479Z,4.33
2023-05-19T16:33:42.382Z,4.60
2023-05-19T16:36:10.165Z,5.03
2023-05-19T16:38:38.011Z,5.10
2023-05-19T16:41:07.389Z,5.60
2023-05-19T16:43:35.860Z,4.90
2023-05-19T16:46:05.192Z,4.17
2023-05-19T16:48:33.090Z,4.43
2023-05-19T16:51:02.266Z,4.63
2023-05-19T16:53:30.987Z,4.10
2023-05-19T16:55:59.890Z,4.80
2023-05-19T16:58:28.911Z,4.20
2023-05-19T17:00:58.423Z,5.10
2023-05-19T17:03:26.365Z,5.50
2023-05-19T17:05:54.291Z,5.43
2023-05-19T17:08:23.485Z,4.97
2023-05-19T17:10:51.268Z,5.17
2023-05-19T17:13:19.056Z,5.03
2023-05-19T17:15:46.940Z,4.43
2023-05-19T17:18:15.903Z,4.20
2023-05-19T17:20:43.785Z,3.90
2023-05-19T17:23:11.651Z,4.50
2023-05-19T17:25:41.015Z,4.00
2023-05-19T17:28:08.863Z,4.17
2023-05-19T17:30:36.662Z,4.10
2023-05-19T17:33:05.063Z,4.40
2023-05-19T17:35:34.256Z,4.57
2023-05-19T17:38:02.054Z,4.10
2023-05-19T17:40:29.974Z,4.07
2023-05-19T17:42:59.075Z,4.10
2023-05-19T17:45:27.191Z,3.93
2023-05-19T17:47:55.040Z,4.03
2023-05-19T17:50:22.856Z,3.40
2023-05-19T17:52:51.495Z,4.07
2023-05-19T17:55:20.428Z,3.30
2023-05-19T17:57:49.696Z,4.10
2023-05-19T18:00:20.069Z,3.83
2023-05-19T18:02:48.661Z,3.63
2023-05-19T18:05:17.642Z,3.37
2023-05-19T18:07:45.702Z,3.70
2023-05-19T18:10:16.183Z,4.53
2023-05-19T18:12:44.037Z,3.80
2023-05-19T18:15:12.868Z,3.70
2023-05-19T18:17:42.101Z,3.57
2023-05-19T18:20:11.076Z,3.43
2023-05-19T18:22:38.890Z,3.57
2023-05-19T18:25:07.803Z,3.40
2023-05-19T18:27:35.664Z,3.67
2023-05-19T18:30:03.650Z,3.27
2023-05-19T18:32:31.536Z,3.20
2023-05-19T18:35:00.694Z,3.00
2023-05-19T18:37:29.167Z,3.60
2023-05-19T18:39:57.284Z,3.70
2023-05-19T18:42:25.167Z,3.57
2023-05-19T18:44:53.079Z,3.17
2023-05-19T18:47:22.710Z,3.20
2023-05-19T18:49:50.555Z,4.00
2023-05-19T18:52:21.570Z,3.60
2023-05-19T18:54:50.227Z,3.80
2023-05-19T18:57:18.021Z,3.57
2023-05-19T18:59:45.801Z,3.60
2023-05-19T19:02:13.625Z,3.77
2023-05-19T19:04:41.415Z,4.00
2023-05-19T19:07:10.422Z,3.70
2023-05-19T19:09:43.414Z,3.20
2023-05-19T19:12:11.329Z,3.87
2023-05-19T19:14:39.420Z,3.60
2023-05-19T19:17:07.349Z,3.67
2023-05-19T19:19:35.372Z,3.47
2023-05-19T19:22:03.237Z,3.43
2023-05-19T19:24:32.043Z,4.53
2023-05-19T19:27:01.292Z,3.83
2023-05-19T19:29:29.074Z,4.27
2023-05-19T19:31:57.047Z,4.13
2023-05-19T19:34:24.932Z,3.33
2023-05-19T19:36:52.845Z,3.30
2023-05-19T19:39:20.618Z,4.07
2023-05-19T19:41:48.447Z,3.43
2023-05-19T19:44:17.543Z,4.03
2023-05-19T19:46:45.440Z,3.87
2023-05-19T19:49:13.298Z,3.97
2023-05-19T19:51:41.140Z,4.30
2023-05-19T19:54:09.033Z,4.10
2023-05-19T19:56:36.890Z,4.87
2023-05-19T19:59:04.707Z,4.90
2023-05-19T20:01:33.937Z,5.17
2023-05-19T20:04:01.918Z,5.17
2023-05-19T20:06:29.933Z,4.73
2023-05-19T20:08:57.748Z,4.00
2023-05-19T20:11:26.684Z,4.63
2023-05-19T20:13:54.558Z,4.17
2023-05-19T20:16:23.941Z,3.43
2023-05-19T20:18:53.155Z,4.30
2023-05-19T20:21:21.043Z,4.30
2023-05-19T20:23:50.315Z,4.20
2023-05-19T20:26:18.199Z,4.20
2023-05-19T20:28:46.324Z,3.97
2023-05-19T20:31:14.102Z,4.50
2023-05-19T20:33:41.943Z,4.17
2023-05-19T20:36:11.178Z,4.00
2023-05-19T20:38:39.004Z,3.80
2023-05-19T20:41:06.869Z,4.37
2023-05-19T20:43:34.748Z,4.10
2023-05-19T20:46:03.721Z,3.40
2023-05-19T20:48:31.674Z,3.43
2023-05-19T20:50:59.527Z,3.90
2023-05-19T20:53:28.684Z,3.07
2023-05-19T20:55:56.502Z,3.33
2023-05-19T20:58:26.528Z,3.10
2023-05-19T21:00:57.508Z,3.30
2023-05-19T21:03:26.782Z,3.07
2023-05-19T21:05:55.115Z,2.70
2023-05-19T21:08:23.191Z,2.13
2023-05-19T21:10:52.609Z,2.50
2023-05-19T21:13:20.571Z,2.63
2023-05-19T21:15:48.571Z,2.57
2023-05-19T21:18:16.638Z,2.73
2023-05-19T21:20:44.467Z,2.20
2023-05-19T21:23:12.673Z,2.07
2023-05-19T21:25:40.899Z,2.43
2023-05-19T21:28:10.037Z,2.20
2023-05-19T21:30:37.856Z,2.50
2023-05-19T21:33:05.883Z,2.50
2023-05-19T21:35:33.682Z,2.03
2023-05-19T21:38:11.914Z,2.47
2023-05-19T21:40:43.756Z,3.00
2023-05-19T21:43:13.235Z,2.63
2023-05-19T21:45:41.006Z,2.83
2023-05-19T21:48:08.827Z,2.77
2023-05-19T21:50:38.206Z,2.57
2023-05-19T21:53:06.360Z,2.93
2023-05-19T21:55:34.213Z,2.47
2023-05-19T21:58:02.785Z,2.53
2023-05-19T22:00:32.363Z,2.40
2023-05-19T22:03:00.664Z,3.00
2023-05-19T22:05:30.614Z,2.50
2023-05-19T22:07:58.618Z,2.23
2023-05-19T22:10:26.452Z,2.00
2023-05-19T22:12:54.312Z,2.97
2023-05-19T22:15:22.216Z,2.30
2023-05-19T22:17:51.503Z,2.70
2023-05-19T22:20:19.496Z,2.27
2023-05-19T22:22:47.308Z,2.60
2023-05-19T22:25:15.134Z,2.40
2023-05-19T22:27:43.330Z,2.20
2023-05-19T22:30:11.399Z,2.90
2023-05-19T22:32:39.240Z,2.10
2023-05-19T22:35:09.153Z,2.40
2023-05-19T22:37:36.975Z,2.60
2023-05-19T22:40:05.446Z,2.60
2023-05-19T22:42:33.343Z,2.40
2023-05-19T22:45:01.172Z,2.33
2023-05-19T22:47:29.636Z,2.57
2023-05-19T22:49:57.502Z,2.77
2023-05-19T22:52:26.671Z,2.37
2023-05-19T22:54:54.534Z,2.37
2023-05-19T22:57:22.357Z,2.63
2023-05-19T23:02:32.276Z,2.13
2023-05-19T23:05:00.189Z,2.33
2023-05-19T23:07:29.330Z,2.20
2023-05-19T23:09:57.124Z,2.60
2023-05-19T23:12:24.980Z,2.40
2023-05-19T23:14:53.496Z,2.27
2023-05-19T23:17:21.263Z,2.40
2023-05-19T23:19:49.084Z,2.43
2023-05-19T23:22:17.181Z,3.30
2023-05-19T23:24:46.440Z,2.57
2023-05-19T23:27:14.235Z,2.93
2023-05-19T23:29:42.111Z,2.17
2023-05-19T23:32:09.972Z,2.10
2023-05-19T23:34:37.774Z,2.27
2023-05-19T23:37:05.882Z,2.50
2023-05-19T23:39:33.677Z,2.50
2023-05-19T23:42:03.442Z,2.20
2023-05-19T23:44:31.225Z,2.30
2023-05-19T23:46:59.077Z,2.47
2023-05-19T23:49:26.964Z,2.87
2023-05-19T23:51:54.789Z,2.20
2023-05-19T23:54:22.740Z,2.87
2023-05-19T23:56:50.747Z,2.90
2023-05-19T23:59:19.881Z,2.70
